McCarthy, Alaska
Current Conditions -  °F | °C
As of 3:22 PM on Monday 20 Oct 2014 (Local Time) from PAGK Reporting Station
Overcast Overcast  
Wind Chill: 21°   Ceiling: 1800
Heat Index: 21°   Visibility: 8mi
Dew Point: 20°   Wind: 0mph
Humidity: 96%   Direction: NA
Pressure: 29.12"   Gusts: NA
Location:  61.44°N, 142.91°W
Report Text: PAGK 202322Z AUTO 00000KT 8SM BKN018 BKN085 OVC100 M06/M07 A2912 RMK AO2 SNE22 P0001 T10611067 TSNO
Loading
Personal Weather Stations






























Interactive Weather Map
Tropical Storm Tracking
New forecast layout! Learn more

10-Day Weather Forecast

Advertisements
Track Severe Weather on mobile